Florida, New York
Current Conditions -  °F | °C
As of 1:37 PM on Thursday 27 Nov 2014 (Local Time) from KMGJ Reporting Station
Light Snow Light Snow  
Wind Chill: 34°   Ceiling: 1200
Heat Index: 34°   Visibility: 3mi
Dew Point: 31°   Wind: 0mph
Humidity: 89%   Direction: NA
Pressure: 29.96"   Gusts: NA
Location:  41.33°N, 74.36°W
Report Text: KMGJ 271837Z AUTO 00000KT 3SM -SN BR BKN012 BKN017 OVC048 01/M01 A2996 RMK AO2 P0000 T00111006 TSNO $
Loading
Personal Weather Stations






























Interactive Weather Map New forecast layout! Learn more

10-Day Weather Forecast

Advertisements
Track Severe Weather on mobile